sensor_id;sensor_type;location;lat;lon;timestamp;P1;durP1;ratioP1;P2;durP2;ratioP2
13051;SDS011;6592;47.484;9.726;2023-03-19T00:01:07;4.03;;;1.90;;
13051;SDS011;6592;47.484;9.726;2023-03-19T00:03:37;4.10;;;1.95;;
13051;SDS011;6592;47.484;9.726;2023-03-19T00:06:06;3.67;;;1.83;;
13051;SDS011;6592;47.484;9.726;2023-03-19T00:08:35;4.88;;;2.05;;
13051;SDS011;6592;47.484;9.726;2023-03-19T00:11:05;6.28;;;2.08;;
13051;SDS011;6592;47.484;9.726;2023-03-19T00:13:35;5.07;;;1.80;;
13051;SDS011;6592;47.484;9.726;2023-03-19T00:16:04;5.07;;;2.03;;
13051;SDS011;6592;47.484;9.726;2023-03-19T00:18:36;6.95;;;2.15;;
13051;SDS011;6592;47.484;9.726;2023-03-19T00:21:04;6.15;;;1.80;;
13051;SDS011;6592;47.484;9.726;2023-03-19T00:23:33;7.85;;;2.17;;
13051;SDS011;6592;47.484;9.726;2023-03-19T00:26:03;5.82;;;1.90;;
13051;SDS011;6592;47.484;9.726;2023-03-19T00:28:32;4.35;;;1.80;;
13051;SDS011;6592;47.484;9.726;2023-03-19T00:31:06;4.22;;;1.83;;
13051;SDS011;6592;47.484;9.726;2023-03-19T00:33:37;3.78;;;1.67;;
13051;SDS011;6592;47.484;9.726;2023-03-19T00:36:08;4.45;;;1.70;;
13051;SDS011;6592;47.484;9.726;2023-03-19T00:38:38;5.15;;;2.10;;
13051;SDS011;6592;47.484;9.726;2023-03-19T00:41:08;5.82;;;2.00;;
13051;SDS011;6592;47.484;9.726;2023-03-19T00:43:37;5.45;;;2.28;;
13051;SDS011;6592;47.484;9.726;2023-03-19T00:46:07;5.65;;;2.00;;
13051;SDS011;6592;47.484;9.726;2023-03-19T00:48:37;4.13;;;2.10;;
13051;SDS011;6592;47.484;9.726;2023-03-19T00:51:06;3.63;;;1.73;;
13051;SDS011;6592;47.484;9.726;2023-03-19T00:53:37;5.50;;;2.00;;
13051;SDS011;6592;47.484;9.726;2023-03-19T00:56:06;4.55;;;1.95;;
13051;SDS011;6592;47.484;9.726;2023-03-19T00:58:35;6.35;;;1.90;;
13051;SDS011;6592;47.484;9.726;2023-03-19T01:01:06;4.43;;;1.90;;
13051;SDS011;6592;47.484;9.726;2023-03-19T01:03:38;4.03;;;1.90;;
13051;SDS011;6592;47.484;9.726;2023-03-19T01:06:06;4.03;;;2.10;;
13051;SDS011;6592;47.484;9.726;2023-03-19T01:08:37;3.92;;;2.00;;
13051;SDS011;6592;47.484;9.726;2023-03-19T01:11:07;4.13;;;1.73;;
13051;SDS011;6592;47.484;9.726;2023-03-19T01:13:37;4.35;;;1.95;;
13051;SDS011;6592;47.484;9.726;2023-03-19T01:16:07;4.43;;;2.25;;
13051;SDS011;6592;47.484;9.726;2023-03-19T01:18:37;5.40;;;2.20;;
13051;SDS011;6592;47.484;9.726;2023-03-19T01:21:07;6.63;;;2.50;;
13051;SDS011;6592;47.484;9.726;2023-03-19T01:23:36;4.10;;;1.98;;
13051;SDS011;6592;47.484;9.726;2023-03-19T01:26:05;4.03;;;1.80;;
13051;SDS011;6592;47.484;9.726;2023-03-19T01:28:36;5.03;;;2.13;;
13051;SDS011;6592;47.484;9.726;2023-03-19T01:31:05;5.10;;;2.03;;
13051;SDS011;6592;47.484;9.726;2023-03-19T01:33:35;4.55;;;2.10;;
13051;SDS011;6592;47.484;9.726;2023-03-19T01:36:07;5.30;;;2.22;;
13051;SDS011;6592;47.484;9.726;2023-03-19T01:38:41;3.92;;;1.85;;
13051;SDS011;6592;47.484;9.726;2023-03-19T01:41:10;5.78;;;1.88;;
13051;SDS011;6592;47.484;9.726;2023-03-19T01:43:39;4.88;;;2.17;;
13051;SDS011;6592;47.484;9.726;2023-03-19T01:46:11;3.92;;;1.73;;
13051;SDS011;6592;47.484;9.726;2023-03-19T01:48:47;4.18;;;1.83;;
13051;SDS011;6592;47.484;9.726;2023-03-19T01:51:19;6.38;;;2.50;;
13051;SDS011;6592;47.484;9.726;2023-03-19T01:53:53;5.00;;;2.22;;
13051;SDS011;6592;47.484;9.726;2023-03-19T01:56:26;4.28;;;2.20;;
13051;SDS011;6592;47.484;9.726;2023-03-19T01:59:00;4.32;;;1.80;;
13051;SDS011;6592;47.484;9.726;2023-03-19T02:01:33;5.22;;;2.15;;
13051;SDS011;6592;47.484;9.726;2023-03-19T02:04:08;5.13;;;2.33;;
13051;SDS011;6592;47.484;9.726;2023-03-19T02:06:37;8.57;;;3.63;;
13051;SDS011;6592;47.484;9.726;2023-03-19T02:09:08;8.45;;;3.22;;
13051;SDS011;6592;47.484;9.726;2023-03-19T02:11:39;6.47;;;2.20;;
13051;SDS011;6592;47.484;9.726;2023-03-19T02:14:09;3.92;;;1.92;;
13051;SDS011;6592;47.484;9.726;2023-03-19T02:16:39;4.53;;;2.20;;
13051;SDS011;6592;47.484;9.726;2023-03-19T02:19:21;3.28;;;1.70;;
13051;SDS011;6592;47.484;9.726;2023-03-19T02:21:55;8.07;;;2.10;;
13051;SDS011;6592;47.484;9.726;2023-03-19T02:24:27;3.90;;;1.90;;
13051;SDS011;6592;47.484;9.726;2023-03-19T02:27:04;5.15;;;1.90;;
13051;SDS011;6592;47.484;9.726;2023-03-19T02:29:34;4.60;;;1.90;;
13051;SDS011;6592;47.484;9.726;2023-03-19T02:32:05;13.82;;;3.22;;
13051;SDS011;6592;47.484;9.726;2023-03-19T02:34:36;8.65;;;2.58;;
13051;SDS011;6592;47.484;9.726;2023-03-19T02:37:08;5.80;;;2.10;;
13051;SDS011;6592;47.484;9.726;2023-03-19T02:39:45;7.10;;;2.08;;
13051;SDS011;6592;47.484;9.726;2023-03-19T02:42:20;6.63;;;1.85;;
13051;SDS011;6592;47.484;9.726;2023-03-19T02:44:51;5.40;;;2.30;;
13051;SDS011;6592;47.484;9.726;2023-03-19T02:47:19;5.07;;;2.10;;
13051;SDS011;6592;47.484;9.726;2023-03-19T02:49:52;4.78;;;1.80;;
13051;SDS011;6592;47.484;9.726;2023-03-19T02:52:22;4.90;;;1.90;;
13051;SDS011;6592;47.484;9.726;2023-03-19T02:54:51;6.13;;;2.00;;
13051;SDS011;6592;47.484;9.726;2023-03-19T02:57:21;6.47;;;2.10;;
13051;SDS011;6592;47.484;9.726;2023-03-19T02:59:50;5.78;;;1.88;;
13051;SDS011;6592;47.484;9.726;2023-03-19T03:02:19;4.93;;;2.08;;
13051;SDS011;6592;47.484;9.726;2023-03-19T03:04:48;3.80;;;1.83;;
13051;SDS011;6592;47.484;9.726;2023-03-19T03:07:18;4.13;;;1.95;;
13051;SDS011;6592;47.484;9.726;2023-03-19T03:09:48;4.53;;;2.10;;
13051;SDS011;6592;47.484;9.726;2023-03-19T03:12:18;7.05;;;2.28;;
13051;SDS011;6592;47.484;9.726;2023-03-19T03:14:48;4.68;;;2.10;;
13051;SDS011;6592;47.484;9.726;2023-03-19T03:17:18;4.13;;;2.05;;
13051;SDS011;6592;47.484;9.726;2023-03-19T03:19:46;7.10;;;2.10;;
13051;SDS011;6592;47.484;9.726;2023-03-19T03:22:15;4.47;;;1.70;;
13051;SDS011;6592;47.484;9.726;2023-03-19T03:24:44;4.38;;;1.90;;
13051;SDS011;6592;47.484;9.726;2023-03-19T03:27:14;4.47;;;1.85;;
13051;SDS011;6592;47.484;9.726;2023-03-19T03:29:43;5.00;;;1.90;;
13051;SDS011;6592;47.484;9.726;2023-03-19T03:32:14;5.03;;;1.80;;
13051;SDS011;6592;47.484;9.726;2023-03-19T03:34:43;4.80;;;1.73;;
13051;SDS011;6592;47.484;9.726;2023-03-19T03:37:13;5.50;;;2.10;;
13051;SDS011;6592;47.484;9.726;2023-03-19T03:39:42;3.83;;;2.05;;
13051;SDS011;6592;47.484;9.726;2023-03-19T03:42:12;4.97;;;1.85;;
13051;SDS011;6592;47.484;9.726;2023-03-19T03:44:40;5.53;;;1.90;;
13051;SDS011;6592;47.484;9.726;2023-03-19T03:47:09;4.13;;;2.10;;
13051;SDS011;6592;47.484;9.726;2023-03-19T03:49:40;4.88;;;2.33;;
13051;SDS011;6592;47.484;9.726;2023-03-19T03:52:11;3.65;;;1.90;;
13051;SDS011;6592;47.484;9.726;2023-03-19T03:54:39;4.53;;;1.83;;
13051;SDS011;6592;47.484;9.726;2023-03-19T03:57:11;4.47;;;1.98;;
13051;SDS011;6592;47.484;9.726;2023-03-19T03:59:40;5.10;;;2.40;;
13051;SDS011;6592;47.484;9.726;2023-03-19T04:02:09;4.82;;;2.15;;
13051;SDS011;6592;47.484;9.726;2023-03-19T04:04:39;4.35;;;1.80;;
13051;SDS011;6592;47.484;9.726;2023-03-19T04:07:11;4.85;;;2.28;;
13051;SDS011;6592;47.484;9.726;2023-03-19T04:09:41;4.75;;;2.13;;
13051;SDS011;6592;47.484;9.726;2023-03-19T04:12:11;5.22;;;2.08;;
13051;SDS011;6592;47.484;9.726;2023-03-19T04:14:42;4.68;;;2.05;;
13051;SDS011;6592;47.484;9.726;2023-03-19T04:17:10;5.65;;;2.08;;
13051;SDS011;6592;47.484;9.726;2023-03-19T04:19:41;3.58;;;2.00;;
13051;SDS011;6592;47.484;9.726;2023-03-19T04:22:11;5.25;;;2.20;;
13051;SDS011;6592;47.484;9.726;2023-03-19T04:24:41;3.50;;;1.77;;
13051;SDS011;6592;47.484;9.726;2023-03-19T04:27:10;5.13;;;2.20;;
13051;SDS011;6592;47.484;9.726;2023-03-19T04:29:39;4.30;;;2.10;;
13051;SDS011;6592;47.484;9.726;2023-03-19T04:32:08;4.95;;;2.42;;
13051;SDS011;6592;47.484;9.726;2023-03-19T04:34:37;6.28;;;2.65;;
13051;SDS011;6592;47.484;9.726;2023-03-19T04:37:09;5.70;;;1.95;;
13051;SDS011;6592;47.484;9.726;2023-03-19T04:39:38;5.22;;;2.20;;
13051;SDS011;6592;47.484;9.726;2023-03-19T04:42:06;4.03;;;1.85;;
13051;SDS011;6592;47.484;9.726;2023-03-19T04:44:35;4.53;;;1.98;;
13051;SDS011;6592;47.484;9.726;2023-03-19T04:47:04;4.90;;;1.90;;
13051;SDS011;6592;47.484;9.726;2023-03-19T04:49:33;8.48;;;2.00;;
13051;SDS011;6592;47.484;9.726;2023-03-19T04:52:02;5.18;;;1.83;;
13051;SDS011;6592;47.484;9.726;2023-03-19T04:54:33;6.15;;;2.13;;
13051;SDS011;6592;47.484;9.726;2023-03-19T04:57:03;5.22;;;1.92;;
13051;SDS011;6592;47.484;9.726;2023-03-19T04:59:32;6.60;;;2.20;;
13051;SDS011;6592;47.484;9.726;2023-03-19T05:02:01;4.40;;;1.98;;
13051;SDS011;6592;47.484;9.726;2023-03-19T05:04:30;5.97;;;2.03;;
13051;SDS011;6592;47.484;9.726;2023-03-19T05:06:59;4.70;;;2.08;;
13051;SDS011;6592;47.484;9.726;2023-03-19T05:09:28;5.05;;;2.15;;
13051;SDS011;6592;47.484;9.726;2023-03-19T05:11:59;7.20;;;2.50;;
13051;SDS011;6592;47.484;9.726;2023-03-19T05:14:28;7.05;;;2.50;;
13051;SDS011;6592;47.484;9.726;2023-03-19T05:16:57;5.47;;;2.17;;
13051;SDS011;6592;47.484;9.726;2023-03-19T05:19:27;6.53;;;2.50;;
13051;SDS011;6592;47.484;9.726;2023-03-19T05:21:56;6.63;;;2.50;;
13051;SDS011;6592;47.484;9.726;2023-03-19T05:24:25;6.50;;;2.58;;
13051;SDS011;6592;47.484;9.726;2023-03-19T05:26:54;5.85;;;2.45;;
13051;SDS011;6592;47.484;9.726;2023-03-19T05:29:25;4.85;;;2.35;;
13051;SDS011;6592;47.484;9.726;2023-03-19T05:31:54;5.55;;;1.98;;
13051;SDS011;6592;47.484;9.726;2023-03-19T05:34:23;6.85;;;2.17;;
13051;SDS011;6592;47.484;9.726;2023-03-19T05:36:52;3.78;;;1.90;;
13051;SDS011;6592;47.484;9.726;2023-03-19T05:39:21;5.00;;;1.88;;
13051;SDS011;6592;47.484;9.726;2023-03-19T05:41:50;3.42;;;1.80;;
13051;SDS011;6592;47.484;9.726;2023-03-19T05:44:19;5.22;;;2.08;;
13051;SDS011;6592;47.484;9.726;2023-03-19T05:46:49;4.25;;;1.90;;
13051;SDS011;6592;47.484;9.726;2023-03-19T05:49:18;5.25;;;2.17;;
13051;SDS011;6592;47.484;9.726;2023-03-19T05:51:47;5.43;;;2.00;;
13051;SDS011;6592;47.484;9.726;2023-03-19T05:54:16;6.55;;;1.95;;
13051;SDS011;6592;47.484;9.726;2023-03-19T05:56:44;4.53;;;2.22;;
13051;SDS011;6592;47.484;9.726;2023-03-19T05:59:13;5.10;;;2.30;;
13051;SDS011;6592;47.484;9.726;2023-03-19T06:01:44;8.32;;;2.25;;
13051;SDS011;6592;47.484;9.726;2023-03-19T06:04:14;4.57;;;1.80;;
13051;SDS011;6592;47.484;9.726;2023-03-19T06:06:42;3.78;;;1.77;;
13051;SDS011;6592;47.484;9.726;2023-03-19T06:09:11;4.28;;;1.83;;
13051;SDS011;6592;47.484;9.726;2023-03-19T06:11:40;4.10;;;1.90;;
13051;SDS011;6592;47.484;9.726;2023-03-19T06:14:10;4.50;;;1.63;;
13051;SDS011;6592;47.484;9.726;2023-03-19T06:16:39;5.20;;;1.98;;
13051;SDS011;6592;47.484;9.726;2023-03-19T06:19:08;4.93;;;2.20;;
13051;SDS011;6592;47.484;9.726;2023-03-19T06:21:39;5.10;;;2.13;;
13051;SDS011;6592;47.484;9.726;2023-03-19T06:24:08;4.30;;;1.90;;
13051;SDS011;6592;47.484;9.726;2023-03-19T06:26:37;4.45;;;2.20;;
13051;SDS011;6592;47.484;9.726;2023-03-19T06:29:06;5.15;;;2.17;;
13051;SDS011;6592;47.484;9.726;2023-03-19T06:31:34;6.40;;;2.25;;
13051;SDS011;6592;47.484;9.726;2023-03-19T06:34:05;5.25;;;2.20;;
13051;SDS011;6592;47.484;9.726;2023-03-19T06:36:34;5.85;;;2.30;;
13051;SDS011;6592;47.484;9.726;2023-03-19T06:39:04;4.45;;;2.15;;
13051;SDS011;6592;47.484;9.726;2023-03-19T06:41:33;5.70;;;2.20;;
13051;SDS011;6592;47.484;9.726;2023-03-19T06:44:02;5.63;;;2.30;;
13051;SDS011;6592;47.484;9.726;2023-03-19T06:46:31;4.90;;;2.28;;
13051;SDS011;6592;47.484;9.726;2023-03-19T06:49:00;5.45;;;2.58;;
13051;SDS011;6592;47.484;9.726;2023-03-19T06:51:28;4.88;;;2.45;;
13051;SDS011;6592;47.484;9.726;2023-03-19T06:53:57;5.45;;;2.38;;
13051;SDS011;6592;47.484;9.726;2023-03-19T06:56:28;4.63;;;2.28;;
13051;SDS011;6592;47.484;9.726;2023-03-19T06:58:56;6.15;;;2.10;;
13051;SDS011;6592;47.484;9.726;2023-03-19T07:01:25;7.60;;;2.47;;
13051;SDS011;6592;47.484;9.726;2023-03-19T07:03:54;5.20;;;2.42;;
13051;SDS011;6592;47.484;9.726;2023-03-19T07:06:23;5.95;;;2.30;;
13051;SDS011;6592;47.484;9.726;2023-03-19T07:08:52;6.20;;;2.63;;
13051;SDS011;6592;47.484;9.726;2023-03-19T07:11:21;4.68;;;2.20;;
13051;SDS011;6592;47.484;9.726;2023-03-19T07:13:51;4.68;;;2.10;;
13051;SDS011;6592;47.484;9.726;2023-03-19T07:16:20;6.15;;;2.30;;
13051;SDS011;6592;47.484;9.726;2023-03-19T07:18:50;4.80;;;2.17;;
13051;SDS011;6592;47.484;9.726;2023-03-19T07:21:19;3.97;;;2.10;;
13051;SDS011;6592;47.484;9.726;2023-03-19T07:23:47;6.25;;;2.70;;
13051;SDS011;6592;47.484;9.726;2023-03-19T07:26:18;4.15;;;2.20;;
13051;SDS011;6592;47.484;9.726;2023-03-19T07:28:47;5.38;;;2.60;;
13051;SDS011;6592;47.484;9.726;2023-03-19T07:31:17;7.78;;;2.17;;
13051;SDS011;6592;47.484;9.726;2023-03-19T07:33:46;4.55;;;2.22;;
13051;SDS011;6592;47.484;9.726;2023-03-19T07:36:14;4.55;;;2.28;;
13051;SDS011;6592;47.484;9.726;2023-03-19T07:38:44;7.50;;;2.42;;
13051;SDS011;6592;47.484;9.726;2023-03-19T07:41:12;5.30;;;2.50;;
13051;SDS011;6592;47.484;9.726;2023-03-19T07:43:41;8.15;;;2.85;;
13051;SDS011;6592;47.484;9.726;2023-03-19T07:46:09;5.72;;;2.50;;
13051;SDS011;6592;47.484;9.726;2023-03-19T07:48:41;10.43;;;2.80;;
13051;SDS011;6592;47.484;9.726;2023-03-19T07:51:09;5.90;;;2.73;;
13051;SDS011;6592;47.484;9.726;2023-03-19T07:53:38;5.10;;;2.50;;
13051;SDS011;6592;47.484;9.726;2023-03-19T07:56:07;6.70;;;2.85;;
13051;SDS011;6592;47.484;9.726;2023-03-19T07:58:35;5.32;;;2.58;;
13051;SDS011;6592;47.484;9.726;2023-03-19T08:01:04;7.22;;;2.80;;
13051;SDS011;6592;47.484;9.726;2023-03-19T08:03:32;7.90;;;2.72;;
13051;SDS011;6592;47.484;9.726;2023-03-19T08:06:03;4.60;;;2.40;;
13051;SDS011;6592;47.484;9.726;2023-03-19T08:08:32;4.35;;;2.10;;
13051;SDS011;6592;47.484;9.726;2023-03-19T08:11:01;6.60;;;2.20;;
13051;SDS011;6592;47.484;9.726;2023-03-19T08:13:30;5.70;;;2.50;;
13051;SDS011;6592;47.484;9.726;2023-03-19T08:15:59;5.20;;;2.30;;
13051;SDS011;6592;47.484;9.726;2023-03-19T08:18:28;3.63;;;1.98;;
13051;SDS011;6592;47.484;9.726;2023-03-19T08:20:57;3.88;;;2.15;;
13051;SDS011;6592;47.484;9.726;2023-03-19T08:23:27;7.13;;;2.70;;
13051;SDS011;6592;47.484;9.726;2023-03-19T08:25:56;8.07;;;3.08;;
13051;SDS011;6592;47.484;9.726;2023-03-19T08:28:25;9.15;;;2.72;;
13051;SDS011;6592;47.484;9.726;2023-03-19T08:30:53;5.32;;;2.50;;
13051;SDS011;6592;47.484;9.726;2023-03-19T08:33:22;5.30;;;2.25;;
13051;SDS011;6592;47.484;9.726;2023-03-19T08:35:51;3.45;;;1.92;;
13051;SDS011;6592;47.484;9.726;2023-03-19T08:38:20;5.38;;;2.05;;
13051;SDS011;6592;47.484;9.726;2023-03-19T08:40:50;5.05;;;2.13;;
13051;SDS011;6592;47.484;9.726;2023-03-19T08:43:18;6.15;;;2.20;;
13051;SDS011;6592;47.484;9.726;2023-03-19T08:45:47;4.93;;;1.90;;
13051;SDS011;6592;47.484;9.726;2023-03-19T08:48:16;4.07;;;1.73;;
13051;SDS011;6592;47.484;9.726;2023-03-19T08:50:50;2.97;;;1.58;;
13051;SDS011;6592;47.484;9.726;2023-03-19T08:53:20;3.72;;;1.52;;
13051;SDS011;6592;47.484;9.726;2023-03-19T08:55:51;4.00;;;1.70;;
13051;SDS011;6592;47.484;9.726;2023-03-19T09:00:50;4.55;;;1.60;;
13051;SDS011;6592;47.484;9.726;2023-03-19T09:03:19;4.32;;;1.70;;
13051;SDS011;6592;47.484;9.726;2023-03-19T09:05:48;2.70;;;1.20;;
13051;SDS011;6592;47.484;9.726;2023-03-19T09:08:17;3.30;;;1.27;;
13051;SDS011;6592;47.484;9.726;2023-03-19T09:10:47;2.30;;;1.17;;
13051;SDS011;6592;47.484;9.726;2023-03-19T09:13:18;4.03;;;1.50;;
13051;SDS011;6592;47.484;9.726;2023-03-19T09:15:49;2.63;;;1.30;;
13051;SDS011;6592;47.484;9.726;2023-03-19T09:18:18;2.45;;;1.30;;
13051;SDS011;6592;47.484;9.726;2023-03-19T09:20:49;2.70;;;1.38;;
13051;SDS011;6592;47.484;9.726;2023-03-19T09:23:18;2.53;;;1.27;;
13051;SDS011;6592;47.484;9.726;2023-03-19T09:25:47;2.90;;;1.27;;
13051;SDS011;6592;47.484;9.726;2023-03-19T09:28:18;3.22;;;1.50;;
13051;SDS011;6592;47.484;9.726;2023-03-19T09:30:49;3.22;;;1.35;;
13051;SDS011;6592;47.484;9.726;2023-03-19T09:33:18;3.03;;;1.25;;
13051;SDS011;6592;47.484;9.726;2023-03-19T09:35:48;3.08;;;1.30;;
13051;SDS011;6592;47.484;9.726;2023-03-19T09:38:19;4.15;;;1.27;;
13051;SDS011;6592;47.484;9.726;2023-03-19T09:40:48;3.38;;;1.23;;
13051;SDS011;6592;47.484;9.726;2023-03-19T09:46:28;2.40;;;1.10;;
13051;SDS011;6592;47.484;9.726;2023-03-19T09:49:08;2.22;;;1.05;;
13051;SDS011;6592;47.484;9.726;2023-03-19T09:51:44;1.92;;;1.13;;
13051;SDS011;6592;47.484;9.726;2023-03-19T09:54:23;2.05;;;1.08;;
13051;SDS011;6592;47.484;9.726;2023-03-19T09:56:57;2.47;;;1.15;;
13051;SDS011;6592;47.484;9.726;2023-03-19T09:59:28;4.03;;;1.35;;
13051;SDS011;6592;47.484;9.726;2023-03-19T10:01:59;3.25;;;1.08;;
13051;SDS011;6592;47.484;9.726;2023-03-19T10:04:42;2.92;;;1.20;;
13051;SDS011;6592;47.484;9.726;2023-03-19T10:07:22;2.38;;;1.50;;
13051;SDS011;6592;47.484;9.726;2023-03-19T10:10:09;2.30;;;1.23;;
13051;SDS011;6592;47.484;9.726;2023-03-19T10:12:53;3.53;;;1.33;;
13051;SDS011;6592;47.484;9.726;2023-03-19T10:15:29;5.38;;;1.25;;
13051;SDS011;6592;47.484;9.726;2023-03-19T10:18:02;1.92;;;0.98;;
13051;SDS011;6592;47.484;9.726;2023-03-19T10:20:40;1.95;;;1.00;;
13051;SDS011;6592;47.484;9.726;2023-03-19T10:23:22;2.20;;;0.95;;
13051;SDS011;6592;47.484;9.726;2023-03-19T10:26:00;1.98;;;1.20;;
13051;SDS011;6592;47.484;9.726;2023-03-19T10:28:31;2.95;;;1.38;;
13051;SDS011;6592;47.484;9.726;2023-03-19T10:31:04;2.50;;;0.95;;
13051;SDS011;6592;47.484;9.726;2023-03-19T10:33:42;2.22;;;0.90;;
13051;SDS011;6592;47.484;9.726;2023-03-19T10:36:12;2.88;;;1.20;;
13051;SDS011;6592;47.484;9.726;2023-03-19T10:38:42;2.22;;;1.00;;
13051;SDS011;6592;47.484;9.726;2023-03-19T10:41:16;3.70;;;1.37;;
13051;SDS011;6592;47.484;9.726;2023-03-19T10:43:52;1.65;;;0.90;;
13051;SDS011;6592;47.484;9.726;2023-03-19T10:46:25;1.83;;;1.00;;
13051;SDS011;6592;47.484;9.726;2023-03-19T10:48:55;2.45;;;1.00;;
13051;SDS011;6592;47.484;9.726;2023-03-19T10:51:25;2.20;;;0.97;;
13051;SDS011;6592;47.484;9.726;2023-03-19T10:53:55;2.47;;;0.93;;
13051;SDS011;6592;47.484;9.726;2023-03-19T10:56:28;2.65;;;0.90;;
13051;SDS011;6592;47.484;9.726;2023-03-19T10:59:03;2.03;;;0.90;;
13051;SDS011;6592;47.484;9.726;2023-03-19T11:01:35;1.83;;;0.82;;
13051;SDS011;6592;47.484;9.726;2023-03-19T11:04:11;1.77;;;0.90;;
13051;SDS011;6592;47.484;9.726;2023-03-19T11:06:47;1.88;;;0.90;;
13051;SDS011;6592;47.484;9.726;2023-03-19T11:09:18;1.75;;;0.68;;
13051;SDS011;6592;47.484;9.726;2023-03-19T11:11:52;2.20;;;0.77;;
13051;SDS011;6592;47.484;9.726;2023-03-19T11:14:26;2.33;;;0.93;;
13051;SDS011;6592;47.484;9.726;2023-03-19T11:17:03;1.73;;;0.75;;
13051;SDS011;6592;47.484;9.726;2023-03-19T11:19:38;2.35;;;0.80;;
13051;SDS011;6592;47.484;9.726;2023-03-19T11:22:12;2.33;;;0.95;;
13051;SDS011;6592;47.484;9.726;2023-03-19T11:24:51;1.70;;;0.90;;
13051;SDS011;6592;47.484;9.726;2023-03-19T11:27:29;2.10;;;0.90;;
13051;SDS011;6592;47.484;9.726;2023-03-19T11:30:00;2.33;;;0.98;;
13051;SDS011;6592;47.484;9.726;2023-03-19T11:35:36;2.42;;;0.90;;
13051;SDS011;6592;47.484;9.726;2023-03-19T11:38:10;2.28;;;1.02;;
13051;SDS011;6592;47.484;9.726;2023-03-19T11:40:45;4.50;;;1.70;;
13051;SDS011;6592;47.484;9.726;2023-03-19T11:46:13;2.30;;;1.20;;
13051;SDS011;6592;47.484;9.726;2023-03-19T11:51:54;2.60;;;1.08;;
13051;SDS011;6592;47.484;9.726;2023-03-19T11:54:32;2.03;;;1.00;;
13051;SDS011;6592;47.484;9.726;2023-03-19T11:57:11;2.35;;;1.10;;
13051;SDS011;6592;47.484;9.726;2023-03-19T11:59:47;2.80;;;1.10;;
13051;SDS011;6592;47.484;9.726;2023-03-19T12:02:41;2.30;;;1.10;;
13051;SDS011;6592;47.484;9.726;2023-03-19T12:05:38;1.80;;;0.93;;
13051;SDS011;6592;47.484;9.726;2023-03-19T12:08:22;2.38;;;0.90;;
13051;SDS011;6592;47.484;9.726;2023-03-19T12:11:02;2.35;;;1.00;;
13051;SDS011;6592;47.484;9.726;2023-03-19T12:13:43;2.35;;;1.05;;
13051;SDS011;6592;47.484;9.726;2023-03-19T12:16:26;1.70;;;0.93;;
13051;SDS011;6592;47.484;9.726;2023-03-19T12:19:18;2.03;;;1.10;;
13051;SDS011;6592;47.484;9.726;2023-03-19T12:22:08;2.55;;;1.10;;
13051;SDS011;6592;47.484;9.726;2023-03-19T12:27:25;3.03;;;1.05;;
13051;SDS011;6592;47.484;9.726;2023-03-19T12:30:00;2.78;;;1.17;;
13051;SDS011;6592;47.484;9.726;2023-03-19T12:32:43;2.78;;;1.10;;
13051;SDS011;6592;47.484;9.726;2023-03-19T12:35:27;3.63;;;1.15;;
13051;SDS011;6592;47.484;9.726;2023-03-19T12:38:03;2.80;;;1.15;;
13051;SDS011;6592;47.484;9.726;2023-03-19T12:40:38;3.85;;;1.27;;
13051;SDS011;6592;47.484;9.726;2023-03-19T12:43:13;3.63;;;1.17;;
13051;SDS011;6592;47.484;9.726;2023-03-19T12:45:46;2.65;;;1.00;;
13051;SDS011;6592;47.484;9.726;2023-03-19T12:48:19;2.38;;;1.00;;
13051;SDS011;6592;47.484;9.726;2023-03-19T12:50:53;2.20;;;1.10;;
13051;SDS011;6592;47.484;9.726;2023-03-19T12:53:29;2.13;;;1.13;;
13051;SDS011;6592;47.484;9.726;2023-03-19T12:56:07;2.15;;;0.98;;
13051;SDS011;6592;47.484;9.726;2023-03-19T12:58:42;2.45;;;1.08;;
13051;SDS011;6592;47.484;9.726;2023-03-19T13:01:25;2.55;;;1.25;;
13051;SDS011;6592;47.484;9.726;2023-03-19T13:03:58;2.28;;;1.13;;
13051;SDS011;6592;47.484;9.726;2023-03-19T13:06:33;3.40;;;1.13;;
13051;SDS011;6592;47.484;9.726;2023-03-19T13:09:09;3.42;;;1.30;;
13051;SDS011;6592;47.484;9.726;2023-03-19T13:11:44;3.90;;;1.38;;
13051;SDS011;6592;47.484;9.726;2023-03-19T13:14:18;3.05;;;1.42;;
13051;SDS011;6592;47.484;9.726;2023-03-19T13:16:55;3.03;;;1.50;;
13051;SDS011;6592;47.484;9.726;2023-03-19T13:19:31;3.03;;;1.60;;
13051;SDS011;6592;47.484;9.726;2023-03-19T13:22:08;4.50;;;1.42;;
13051;SDS011;6592;47.484;9.726;2023-03-19T13:24:41;2.50;;;1.25;;
13051;SDS011;6592;47.484;9.726;2023-03-19T13:27:12;7.55;;;1.40;;
13051;SDS011;6592;47.484;9.726;2023-03-19T13:29:55;4.65;;;1.50;;
13051;SDS011;6592;47.484;9.726;2023-03-19T13:32:35;3.15;;;1.35;;
13051;SDS011;6592;47.484;9.726;2023-03-19T13:35:09;2.20;;;1.20;;
13051;SDS011;6592;47.484;9.726;2023-03-19T13:37:47;4.18;;;1.42;;
13051;SDS011;6592;47.484;9.726;2023-03-19T13:43:23;2.53;;;1.10;;
13051;SDS011;6592;47.484;9.726;2023-03-19T13:51:55;2.50;;;1.52;;
13051;SDS011;6592;47.484;9.726;2023-03-19T13:54:43;2.50;;;1.35;;
13051;SDS011;6592;47.484;9.726;2023-03-19T13:57:17;2.20;;;1.20;;
13051;SDS011;6592;47.484;9.726;2023-03-19T14:03:19;4.05;;;1.48;;
13051;SDS011;6592;47.484;9.726;2023-03-19T14:05:52;6.18;;;1.60;;
13051;SDS011;6592;47.484;9.726;2023-03-19T14:08:24;3.55;;;1.42;;
13051;SDS011;6592;47.484;9.726;2023-03-19T14:10:54;5.00;;;1.48;;
13051;SDS011;6592;47.484;9.726;2023-03-19T14:13:27;4.65;;;2.00;;
13051;SDS011;6592;47.484;9.726;2023-03-19T14:16:00;6.13;;;2.72;;
13051;SDS011;6592;47.484;9.726;2023-03-19T14:18:38;5.35;;;2.33;;
13051;SDS011;6592;47.484;9.726;2023-03-19T14:21:10;6.05;;;2.40;;
13051;SDS011;6592;47.484;9.726;2023-03-19T14:23:51;4.80;;;2.05;;
13051;SDS011;6592;47.484;9.726;2023-03-19T14:26:26;3.70;;;1.88;;
13051;SDS011;6592;47.484;9.726;2023-03-19T14:28:56;4.93;;;2.72;;
13051;SDS011;6592;47.484;9.726;2023-03-19T14:31:33;4.88;;;1.92;;
13051;SDS011;6592;47.484;9.726;2023-03-19T14:34:21;3.45;;;1.70;;
13051;SDS011;6592;47.484;9.726;2023-03-19T14:36:56;5.60;;;1.88;;
13051;SDS011;6592;47.484;9.726;2023-03-19T14:39:29;2.78;;;1.40;;
13051;SDS011;6592;47.484;9.726;2023-03-19T14:42:00;4.22;;;1.65;;
13051;SDS011;6592;47.484;9.726;2023-03-19T14:47:40;3.88;;;2.20;;
13051;SDS011;6592;47.484;9.726;2023-03-19T14:50:41;4.07;;;2.00;;
13051;SDS011;6592;47.484;9.726;2023-03-19T14:53:22;6.32;;;3.13;;
13051;SDS011;6592;47.484;9.726;2023-03-19T14:55:55;5.03;;;2.63;;
13051;SDS011;6592;47.484;9.726;2023-03-19T14:58:45;7.22;;;2.70;;
13051;SDS011;6592;47.484;9.726;2023-03-19T15:01:16;5.15;;;1.95;;
13051;SDS011;6592;47.484;9.726;2023-03-19T15:03:50;5.07;;;2.15;;
13051;SDS011;6592;47.484;9.726;2023-03-19T15:06:26;4.22;;;2.13;;
13051;SDS011;6592;47.484;9.726;2023-03-19T15:09:00;5.22;;;2.58;;
13051;SDS011;6592;47.484;9.726;2023-03-19T15:11:37;6.50;;;2.70;;
13051;SDS011;6592;47.484;9.726;2023-03-19T15:14:23;6.78;;;2.80;;
13051;SDS011;6592;47.484;9.726;2023-03-19T15:17:13;5.07;;;2.20;;
13051;SDS011;6592;47.484;9.726;2023-03-19T15:19:48;4.13;;;2.20;;
13051;SDS011;6592;47.484;9.726;2023-03-19T15:22:20;5.15;;;2.30;;
13051;SDS011;6592;47.484;9.726;2023-03-19T15:24:53;9.25;;;2.58;;
13051;SDS011;6592;47.484;9.726;2023-03-19T15:27:31;4.88;;;2.60;;
13051;SDS011;6592;47.484;9.726;2023-03-19T15:30:02;6.80;;;2.53;;
13051;SDS011;6592;47.484;9.726;2023-03-19T15:33:18;4.70;;;2.40;;
13051;SDS011;6592;47.484;9.726;2023-03-19T15:36:06;5.93;;;2.40;;
13051;SDS011;6592;47.484;9.726;2023-03-19T15:38:41;3.55;;;2.15;;
13051;SDS011;6592;47.484;9.726;2023-03-19T15:41:13;3.45;;;2.10;;
13051;SDS011;6592;47.484;9.726;2023-03-19T15:43:42;5.03;;;2.03;;
13051;SDS011;6592;47.484;9.726;2023-03-19T15:46:13;3.40;;;2.08;;
13051;SDS011;6592;47.484;9.726;2023-03-19T15:48:46;4.28;;;2.20;;
13051;SDS011;6592;47.484;9.726;2023-03-19T15:51:18;5.32;;;2.20;;
13051;SDS011;6592;47.484;9.726;2023-03-19T15:53:51;6.57;;;2.67;;
13051;SDS011;6592;47.484;9.726;2023-03-19T15:56:22;6.60;;;3.65;;
13051;SDS011;6592;47.484;9.726;2023-03-19T15:58:53;6.43;;;3.13;;
13051;SDS011;6592;47.484;9.726;2023-03-19T16:01:24;5.72;;;2.88;;
13051;SDS011;6592;47.484;9.726;2023-03-19T16:03:55;7.32;;;3.08;;